Terminal Aerodrome Forecast
Issued by NWS

Home | Current Version | Previous Version | Graphics & Text | Print | Product List | Glossary On
Versions: 1 2 3 4 5 6 7 8 9 10 11 12
000
FTUS45 KGGW 211700
TAFSDY
TAF
KSDY 211726Z 2118/2218 24016G22KT P6SM SKC
     FM212300 26008KT P6SM FEW005 SCT250
     FM221200 19007KT P6SM SCT070 BKN120
      AMD LTD TO CLD VIS AND WIND=

USA.gov is the U.S. government's official web portal to all federal, state and local government web resources and services.